Time,TemperatureF,DewpointF,PressureIn,WindDirection,WindDirectionDegrees,WindSpeedMPH,WindSpeedGustMPH,Humidity,HourlyPrecipIn,Conditions,Clouds,dailyrainin,SoftwareType,DateUTC
2014-01-05 00:01:00,12.2,-5.5,0.00,East,90,0.0,0.0,44,0.00,,---,0.55,VWS V14.01,2014-01-05 05:01:00,
2014-01-05 00:02:00,12.2,-5.5,0.00,East,90,0.0,0.0,44,0.00,,---,0.00,VWS V14.01,2014-01-05 05:02:00,
2014-01-05 00:04:00,12.2,-5.5,0.00,East,90,0.0,0.0,44,0.00,,---,0.00,VWS V14.01,2014-01-05 05:04:00,
2014-01-05 00:05:00,12.2,-5.5,0.00,East,90,0.0,0.0,44,0.00,,---,0.00,VWS V14.01,2014-01-05 05:05:00,
2014-01-05 00:06:00,12.2,-5.5,0.00,East,90,0.0,0.0,44,0.00,,---,0.00,VWS V14.01,2014-01-05 05:06:00,
2014-01-05 00:07:00,12.0,-5.7,0.00,East,90,0.0,0.0,44,0.00,,---,0.00,VWS V14.01,2014-01-05 05:07:00,
2014-01-05 00:12:00,11.8,-5.9,0.00,East,90,0.0,0.0,44,0.00,,---,0.00,VWS V14.01,2014-01-05 05:12:00,
2014-01-05 00:18:00,11.7,-6.0,0.00,East,90,0.0,0.0,44,0.00,,---,0.00,VWS V14.01,2014-01-05 05:18:00,
2014-01-05 00:23:00,11.3,-6.4,0.00,East,90,0.0,0.0,44,0.00,,---,0.00,VWS V14.01,2014-01-05 05:23:00,
2014-01-05 00:29:00,11.1,-6.5,0.00,East,90,0.0,0.0,44,0.00,,---,0.00,VWS V14.01,2014-01-05 05:29:00,
2014-01-05 00:50:00,11.1,-6.5,0.00,East,90,0.0,0.0,44,0.00,,---,0.00,VWS V14.01,2014-01-05 05:50:00,
2014-01-05 00:56:00,10.8,-6.8,0.00,East,90,0.0,0.0,44,0.00,,---,0.00,VWS V14.01,2014-01-05 05:56:00,
2014-01-05 01:02:00,10.6,-7.0,0.00,East,90,0.0,0.0,44,0.00,,---,0.00,VWS V14.01,2014-01-05 06:02:00,
2014-01-05 01:07:00,10.6,-7.0,0.00,East,90,0.0,0.0,44,0.00,,---,0.00,VWS V14.01,2014-01-05 06:07:00,
2014-01-05 01:13:00,10.4,-7.2,0.00,East,90,0.0,0.0,44,0.00,,---,0.00,VWS V14.01,2014-01-05 06:13:00,
2014-01-05 01:18:00,10.0,-7.5,0.00,East,90,0.0,0.0,44,0.00,,---,0.00,VWS V14.01,2014-01-05 06:18:00,
2014-01-05 01:23:00,9.7,-7.8,0.00,East,90,0.0,0.0,44,0.00,,---,0.00,VWS V14.01,2014-01-05 06:23:00,
2014-01-05 01:29:00,9.5,-8.0,0.00,East,90,0.0,0.0,44,0.00,,---,0.00,VWS V14.01,2014-01-05 06:29:00,
2014-01-05 01:59:00,9.5,-8.0,0.00,East,90,0.0,0.0,44,0.00,,---,0.00,VWS V14.01,2014-01-05 06:59:00,
2014-01-05 02:04:00,9.1,-8.3,0.00,East,90,0.0,0.0,44,0.00,,---,0.00,VWS V14.01,2014-01-05 07:04:00,
2014-01-05 02:10:00,9.0,-8.5,0.00,East,90,0.0,0.0,44,0.00,,---,0.00,VWS V14.01,2014-01-05 07:10:00,
2014-01-05 02:15:00,9.1,-8.3,0.00,East,90,0.0,0.0,44,0.00,,---,0.00,VWS V14.01,2014-01-05 07:15:00,
2014-01-05 02:21:00,9.1,-8.3,0.00,East,90,0.0,0.0,44,0.00,,---,0.00,VWS V14.01,2014-01-05 07:21:00,
2014-01-05 02:26:00,9.1,-8.3,0.00,East,90,0.0,0.0,44,0.00,,---,0.00,VWS V14.01,2014-01-05 07:26:00,
2014-01-05 02:32:00,9.1,-8.3,0.00,East,90,0.0,0.0,44,0.00,,---,0.00,VWS V14.01,2014-01-05 07:32:00,
2014-01-05 02:50:00,8.8,-8.7,0.00,East,90,0.0,0.0,44,0.00,,---,0.00,VWS V14.01,2014-01-05 07:50:00,
2014-01-05 02:56:00,8.8,-8.7,0.00,East,90,0.0,0.0,44,0.00,,---,0.00,VWS V14.01,2014-01-05 07:56:00,
2014-01-05 03:01:00,8.8,-8.7,0.00,East,90,0.0,0.0,44,0.00,,---,0.00,VWS V14.01,2014-01-05 08:01:00,
2014-01-05 03:07:00,8.8,-8.7,0.00,East,90,0.0,0.0,44,0.00,,---,0.00,VWS V14.01,2014-01-05 08:07:00,
2014-01-05 03:12:00,8.8,-8.7,0.00,East,90,0.0,0.0,44,0.00,,---,0.00,VWS V14.01,2014-01-05 08:12:00,
2014-01-05 03:17:00,8.8,-8.7,0.00,East,90,0.0,0.0,44,0.00,,---,0.00,VWS V14.01,2014-01-05 08:17:00,
2014-01-05 03:22:00,8.8,-8.7,0.00,East,90,0.0,0.0,44,0.00,,---,0.00,VWS V14.01,2014-01-05 08:22:00,
2014-01-05 03:28:00,9.1,-8.3,0.00,East,90,0.0,0.0,44,0.00,,---,0.00,VWS V14.01,2014-01-05 08:28:00,
2014-01-05 03:59:00,9.1,-8.3,0.00,East,90,0.0,0.0,44,0.00,,---,0.55,VWS V14.01,2014-01-05 08:59:00,
2014-01-05 04:04:00,9.1,-8.3,0.00,East,90,0.0,0.0,44,0.00,,---,0.55,VWS V14.01,2014-01-05 09:04:00,
2014-01-05 04:09:00,9.1,-8.3,0.00,East,90,0.0,0.0,44,0.00,,---,0.55,VWS V14.01,2014-01-05 09:09:00,
2014-01-05 04:14:00,9.1,-8.3,0.00,East,90,0.0,0.0,44,0.00,,---,0.55,VWS V14.01,2014-01-05 09:14:00,
2014-01-05 04:20:00,9.1,-8.3,0.00,East,90,0.0,0.0,44,0.00,,---,0.55,VWS V14.01,2014-01-05 09:20:00,
2014-01-05 04:25:00,9.1,-8.3,0.00,East,90,0.0,0.0,44,0.00,,---,0.55,VWS V14.01,2014-01-05 09:25:00,
2014-01-05 04:31:00,9.0,-8.5,0.00,East,90,0.0,0.0,44,0.00,,---,0.55,VWS V14.01,2014-01-05 09:31:00,
2014-01-05 04:50:00,8.6,-8.8,0.00,East,90,0.0,0.0,44,0.00,,---,0.55,VWS V14.01,2014-01-05 09:50:00,
2014-01-05 04:56:00,8.6,-8.8,0.00,East,90,0.0,0.0,44,0.00,,---,0.55,VWS V14.01,2014-01-05 09:56:00,
2014-01-05 05:02:00,8.8,-8.7,0.00,East,90,0.0,0.0,44,0.00,,---,0.55,VWS V14.01,2014-01-05 10:02:00,
2014-01-05 05:07:00,8.8,-8.7,0.00,East,90,0.0,0.0,44,0.00,,---,0.55,VWS V14.01,2014-01-05 10:07:00,
2014-01-05 05:13:00,9.0,-8.5,0.00,East,90,0.0,0.0,44,0.00,,---,0.55,VWS V14.01,2014-01-05 10:13:00,
2014-01-05 05:18:00,8.8,-8.7,0.00,East,90,0.0,0.0,44,0.00,,---,0.55,VWS V14.01,2014-01-05 10:18:00,
2014-01-05 05:24:00,8.8,-8.7,0.00,East,90,0.0,0.0,44,0.00,,---,0.55,VWS V14.01,2014-01-05 10:24:00,
2014-01-05 05:29:00,9.1,-8.3,0.00,East,90,0.0,0.0,44,0.00,,---,0.55,VWS V14.01,2014-01-05 10:29:00,
2014-01-05 05:59:00,9.7,-7.8,0.00,East,90,0.0,0.0,44,0.00,,---,0.55,VWS V14.01,2014-01-05 10:59:00,
2014-01-05 06:04:00,9.9,-7.7,0.00,East,90,0.0,0.0,44,0.00,,---,0.55,VWS V14.01,2014-01-05 11:04:00,
2014-01-05 06:09:00,9.7,-7.8,0.00,East,90,0.0,0.0,44,0.00,,---,0.55,VWS V14.01,2014-01-05 11:09:00,
2014-01-05 06:14:00,9.7,-7.8,0.00,East,90,0.0,0.0,44,0.00,,---,0.55,VWS V14.01,2014-01-05 11:14:00,
2014-01-05 06:20:00,9.7,-7.8,0.00,East,90,0.0,0.0,44,0.00,,---,0.55,VWS V14.01,2014-01-05 11:20:00,
2014-01-05 06:25:00,9.7,-7.8,0.00,East,90,0.0,0.0,44,0.00,,---,0.55,VWS V14.01,2014-01-05 11:25:00,
2014-01-05 06:31:00,9.9,-7.7,0.00,East,90,0.0,0.0,44,0.00,,---,0.55,VWS V14.01,2014-01-05 11:31:00,
2014-01-05 06:50:00,10.0,-7.5,0.00,East,90,0.0,0.0,44,0.00,,---,0.55,VWS V14.01,2014-01-05 11:50:00,
2014-01-05 06:56:00,10.2,-7.3,0.00,East,90,0.0,0.0,44,0.00,,---,0.55,VWS V14.01,2014-01-05 11:56:00,
2014-01-05 07:02:00,10.2,-7.3,0.00,East,90,0.0,0.0,44,0.00,,---,0.55,VWS V14.01,2014-01-05 12:02:00,
2014-01-05 07:07:00,10.2,-7.3,0.00,East,90,0.0,0.0,44,0.00,,---,0.55,VWS V14.01,2014-01-05 12:07:00,
2014-01-05 07:12:00,10.4,-7.2,0.00,East,90,0.0,0.0,44,0.00,,---,0.55,VWS V14.01,2014-01-05 12:12:00,
2014-01-05 07:17:00,10.4,-7.2,0.00,East,90,0.0,0.0,44,0.00,,---,0.55,VWS V14.01,2014-01-05 12:17:00,
2014-01-05 07:23:00,10.4,-7.2,0.00,East,90,0.0,0.0,44,0.00,,---,0.55,VWS V14.01,2014-01-05 12:23:00,
2014-01-05 07:28:00,10.8,-6.8,0.00,East,90,0.0,0.0,44,0.00,,---,0.55,VWS V14.01,2014-01-05 12:28:00,
2014-01-05 07:59:00,11.3,-6.4,0.00,East,90,0.0,0.0,44,0.00,,---,0.55,VWS V14.01,2014-01-05 12:59:00,
2014-01-05 08:04:00,11.7,-6.0,0.00,East,90,0.0,0.0,44,0.00,,---,0.55,VWS V14.01,2014-01-05 13:04:00,
2014-01-05 08:09:00,11.8,-5.9,0.00,East,90,0.0,0.0,44,0.00,,---,0.55,VWS V14.01,2014-01-05 13:09:00,
2014-01-05 08:15:00,12.6,-5.2,0.00,East,90,0.0,0.0,44,0.00,,---,0.55,VWS V14.01,2014-01-05 13:15:00,
2014-01-05 08:20:00,12.7,-5.0,0.00,East,90,0.0,0.0,44,0.00,,---,0.55,VWS V14.01,2014-01-05 13:20:00,
2014-01-05 08:26:00,13.3,-4.6,0.00,East,90,0.0,0.0,44,0.00,,---,0.55,VWS V14.01,2014-01-05 13:26:00,
2014-01-05 08:31:00,13.6,-4.2,0.00,East,90,0.0,0.0,44,0.00,,---,0.55,VWS V14.01,2014-01-05 13:31:00,
2014-01-05 09:07:00,19.6,0.7,0.00,East,90,0.0,2.7,43,0.00,,---,0.55,VWS V14.01,2014-01-05 14:07:00,
2014-01-05 09:12:00,20.1,1.2,0.00,East,90,0.0,0.0,43,0.00,,---,0.55,VWS V14.01,2014-01-05 14:12:00,
2014-01-05 09:18:00,20.3,1.4,0.00,East,94,0.0,0.0,43,0.00,,---,0.55,VWS V14.01,2014-01-05 14:18:00,
2014-01-05 09:23:00,20.5,1.5,0.00,SE,124,0.0,0.0,43,0.00,,---,0.55,VWS V14.01,2014-01-05 14:23:00,
2014-01-05 09:29:00,21.7,2.2,0.00,SE,124,0.0,0.0,42,0.00,,---,0.55,VWS V14.01,2014-01-05 14:29:00,
2014-01-05 09:58:00,24.3,4.5,0.00,SW,224,0.0,2.2,42,0.00,,---,0.55,VWS V14.01,2014-01-05 14:58:00,
2014-01-05 10:04:00,24.6,4.8,0.00,SE,130,0.0,0.0,42,0.00,,---,0.55,VWS V14.01,2014-01-05 15:04:00,
2014-01-05 10:09:00,25.0,5.1,0.00,SE,130,0.0,0.0,42,0.00,,---,0.55,VWS V14.01,2014-01-05 15:09:00,
2014-01-05 10:15:00,25.5,5.6,0.00,SSW,193,3.1,3.1,42,0.00,,---,0.55,VWS V14.01,2014-01-05 15:15:00,
2014-01-05 10:20:00,26.1,6.1,0.00,West,261,2.7,3.1,42,0.00,,---,0.55,VWS V14.01,2014-01-05 15:20:00,
2014-01-05 10:25:00,26.1,6.1,0.00,West,262,2.7,3.1,42,0.00,,---,0.55,VWS V14.01,2014-01-05 15:25:00,
2014-01-05 10:31:00,26.1,6.1,0.00,WSW,249,3.1,4.5,42,0.00,,---,0.55,VWS V14.01,2014-01-05 15:31:00,
2014-01-05 10:50:00,26.4,6.4,0.00,WSW,250,2.2,4.0,42,0.00,,---,0.55,VWS V14.01,2014-01-05 15:50:00,
2014-01-05 10:55:00,26.8,6.2,0.00,West,259,0.0,2.7,41,0.00,,---,0.55,VWS V14.01,2014-01-05 15:55:00,
2014-01-05 11:00:00,27.0,6.4,0.00,West,267,0.0,0.0,41,0.00,,---,0.55,VWS V14.01,2014-01-05 16:00:00,
2014-01-05 11:06:00,27.7,7.1,0.00,West,267,0.0,0.0,41,0.00,,---,0.55,VWS V14.01,2014-01-05 16:06:00,
2014-01-05 11:11:00,28.4,7.7,0.00,West,267,0.0,0.0,41,0.00,,---,0.55,VWS V14.01,2014-01-05 16:11:00,
2014-01-05 11:17:00,29.1,8.4,0.00,West,267,0.0,0.0,41,0.00,,---,0.55,VWS V14.01,2014-01-05 16:17:00,
2014-01-05 11:22:00,29.5,8.7,0.00,West,267,0.0,0.0,41,0.00,,---,0.55,VWS V14.01,2014-01-05 16:22:00,
2014-01-05 11:28:00,29.7,8.9,0.00,West,263,0.0,3.1,41,0.00,,---,0.55,VWS V14.01,2014-01-05 16:28:00,
2014-01-05 11:58:00,30.0,9.2,0.00,SW,228,0.0,2.7,41,0.00,,---,0.55,VWS V14.01,2014-01-05 16:58:00,
2014-01-05 12:04:00,29.5,8.7,0.00,WSW,250,2.7,2.7,41,0.00,,---,0.55,VWS V14.01,2014-01-05 17:04:00,
2014-01-05 12:09:00,29.1,8.4,0.00,West,266,0.0,0.0,41,0.00,,---,0.55,VWS V14.01,2014-01-05 17:09:00,
2014-01-05 12:15:00,29.3,8.5,0.00,West,265,3.6,3.6,41,0.00,,---,0.55,VWS V14.01,2014-01-05 17:15:00,
2014-01-05 12:21:00,29.1,8.4,0.00,SW,234,2.2,3.6,41,0.00,,---,0.55,VWS V14.01,2014-01-05 17:21:00,
2014-01-05 12:27:00,29.1,8.4,0.00,West,261,0.0,0.0,41,0.00,,---,0.55,VWS V14.01,2014-01-05 17:27:00,
2014-01-05 12:50:00,29.8,9.0,0.00,West,261,0.0,0.0,41,0.00,,---,0.55,VWS V14.01,2014-01-05 17:50:00,
2014-01-05 12:55:00,30.0,9.2,0.00,West,261,0.0,0.0,41,0.00,,---,0.55,VWS V14.01,2014-01-05 17:55:00,
2014-01-05 13:00:00,30.2,9.4,0.00,West,261,0.0,0.0,41,0.00,,---,0.55,VWS V14.01,2014-01-05 18:00:00,
2014-01-05 13:06:00,30.6,9.1,0.00,West,261,0.0,0.0,40,0.00,,---,0.55,VWS V14.01,2014-01-05 18:06:00,
2014-01-05 13:11:00,30.7,9.3,0.00,West,261,0.0,0.0,40,0.00,,---,0.55,VWS V14.01,2014-01-05 18:11:00,
2014-01-05 13:17:00,30.9,10.0,0.00,West,261,0.0,0.0,41,0.00,,---,0.55,VWS V14.01,2014-01-05 18:17:00,
2014-01-05 13:22:00,30.6,9.1,0.00,West,261,0.0,0.0,40,0.00,,---,0.55,VWS V14.01,2014-01-05 18:22:00,
2014-01-05 13:28:00,30.2,9.4,0.00,West,261,0.0,0.0,41,0.00,,---,0.55,VWS V14.01,2014-01-05 18:28:00,
2014-01-05 13:58:00,30.2,9.4,0.00,West,265,0.0,3.6,41,0.00,,---,0.55,VWS V14.01,2014-01-05 18:58:00,
2014-01-05 14:04:00,30.0,9.2,0.00,West,263,0.0,0.0,41,0.00,,---,0.55,VWS V14.01,2014-01-05 19:04:00,
2014-01-05 14:09:00,30.0,9.2,0.00,West,262,3.1,3.1,41,0.00,,---,0.55,VWS V14.01,2014-01-05 19:09:00,
2014-01-05 14:15:00,29.8,9.0,0.00,West,264,0.0,0.0,41,0.00,,---,0.55,VWS V14.01,2014-01-05 19:15:00,
2014-01-05 14:20:00,30.2,9.4,0.00,West,264,2.2,2.2,41,0.00,,---,0.55,VWS V14.01,2014-01-05 19:20:00,
2014-01-05 14:26:00,30.2,9.4,0.00,West,263,0.0,0.0,41,0.00,,---,0.55,VWS V14.01,2014-01-05 19:26:00,
2014-01-05 14:32:00,30.0,9.2,0.00,West,266,0.0,0.0,41,0.00,,---,0.55,VWS V14.01,2014-01-05 19:32:00,
2014-01-05 14:50:00,29.8,9.0,0.00,West,263,0.0,3.6,41,0.00,,---,0.55,VWS V14.01,2014-01-05 19:50:00,
2014-01-05 14:55:00,29.7,8.9,0.00,West,265,0.0,0.0,41,0.00,,---,0.55,VWS V14.01,2014-01-05 19:55:00,
2014-01-05 15:00:00,29.8,9.0,0.00,West,262,0.0,0.0,41,0.00,,---,0.55,VWS V14.01,2014-01-05 20:00:00,
2014-01-05 15:05:00,30.2,9.9,0.00,West,262,0.0,0.0,42,0.00,,---,0.55,VWS V14.01,2014-01-05 20:05:00,
2014-01-05 15:11:00,30.6,10.2,0.00,West,262,0.0,0.0,42,0.00,,---,0.55,VWS V14.01,2014-01-05 20:11:00,
2014-01-05 15:16:00,30.6,9.7,0.00,West,262,0.0,0.0,41,0.00,,---,0.55,VWS V14.01,2014-01-05 20:16:00,
2014-01-05 15:22:00,30.6,9.7,0.00,West,262,0.0,2.7,41,0.00,,---,0.55,VWS V14.01,2014-01-05 20:22:00,
2014-01-05 15:27:00,30.4,9.5,0.00,West,262,0.0,2.7,41,0.00,,---,0.55,VWS V14.01,2014-01-05 20:27:00,
2014-01-05 15:58:00,29.7,9.4,0.00,West,265,0.0,3.6,42,0.00,,---,0.55,VWS V14.01,2014-01-05 20:58:00,
2014-01-05 16:04:00,30.0,9.7,0.00,West,265,0.0,0.0,42,0.00,,---,0.55,VWS V14.01,2014-01-05 21:04:00,
2014-01-05 16:09:00,30.0,9.7,0.00,West,260,0.0,0.0,42,0.00,,---,0.55,VWS V14.01,2014-01-05 21:09:00,
2014-01-05 16:15:00,30.0,9.7,0.00,West,266,0.0,3.1,42,0.00,,---,0.55,VWS V14.01,2014-01-05 21:15:00,
2014-01-05 16:20:00,29.8,9.6,0.00,WSW,256,2.2,2.2,42,0.00,,---,0.55,VWS V14.01,2014-01-05 21:20:00,
2014-01-05 16:26:00,29.8,9.6,0.00,WSW,256,0.0,0.0,42,0.00,,---,0.55,VWS V14.01,2014-01-05 21:26:00,
2014-01-05 16:32:00,30.2,9.9,0.00,WSW,256,0.0,0.0,42,0.00,,---,0.55,VWS V14.01,2014-01-05 21:32:00,
2014-01-05 16:49:00,30.7,10.4,0.00,WSW,256,0.0,0.0,42,0.00,,---,0.55,VWS V14.01,2014-01-05 21:49:00,
2014-01-05 16:54:00,30.7,10.4,0.00,WSW,256,0.0,0.0,42,0.00,,---,0.55,VWS V14.01,2014-01-05 21:54:00,
2014-01-05 17:00:00,30.7,10.4,0.00,WSW,256,0.0,0.0,42,0.00,,---,0.55,VWS V14.01,2014-01-05 22:00:00,
2014-01-05 17:05:00,30.7,10.4,0.00,WSW,256,0.0,0.0,42,0.00,,---,0.55,VWS V14.01,2014-01-05 22:05:00,
2014-01-05 17:11:00,30.7,10.4,0.00,WSW,256,0.0,0.0,42,0.00,,---,0.55,VWS V14.01,2014-01-05 22:11:00,
2014-01-05 17:16:00,30.7,10.4,0.00,WSW,256,0.0,0.0,42,0.00,,---,0.55,VWS V14.01,2014-01-05 22:16:00,
2014-01-05 17:22:00,30.9,10.5,0.00,WSW,256,0.0,0.0,42,0.00,,---,0.55,VWS V14.01,2014-01-05 22:22:00,
2014-01-05 17:27:00,31.1,10.7,0.00,WSW,256,0.0,0.0,42,0.00,,---,0.55,VWS V14.01,2014-01-05 22:27:00,
2014-01-05 17:58:00,31.3,11.9,0.00,SSW,206,2.2,3.1,44,0.00,,---,0.55,VWS V14.01,2014-01-05 22:58:00,
2014-01-05 18:03:00,31.3,12.4,0.00,SW,215,3.1,4.0,45,0.00,,---,0.55,VWS V14.01,2014-01-05 23:03:00,
2014-01-05 18:09:00,31.1,12.2,0.00,WSW,249,2.2,2.7,45,0.00,,---,0.55,VWS V14.01,2014-01-05 23:09:00,
2014-01-05 18:14:00,30.9,12.1,0.00,WSW,243,0.0,3.1,45,0.00,,---,0.55,VWS V14.01,2014-01-05 23:14:00,
2014-01-05 18:20:00,30.9,12.1,0.00,WSW,258,0.0,3.1,45,0.00,,---,0.55,VWS V14.01,2014-01-05 23:20:00,
2014-01-05 18:25:00,30.7,11.4,0.00,WSW,240,0.0,0.0,44,0.00,,---,0.55,VWS V14.01,2014-01-05 23:25:00,
2014-01-05 18:31:00,30.7,11.4,0.00,West,265,0.0,2.2,44,0.00,,---,0.55,VWS V14.01,2014-01-05 23:31:00,
2014-01-05 18:49:00,30.9,12.1,0.00,WSW,255,2.7,3.1,45,0.00,,---,0.55,VWS V14.01,2014-01-05 23:49:00,
2014-01-05 18:55:00,30.9,12.6,0.00,West,265,3.1,3.1,46,0.00,,---,0.55,VWS V14.01,2014-01-05 23:55:00,
2014-01-05 19:00:00,30.9,13.1,0.00,WSW,256,0.0,3.1,47,0.00,,---,0.55,VWS V14.01,2014-01-06 00:00:00,
2014-01-05 19:06:00,30.9,13.1,0.00,WSW,254,3.1,3.1,47,0.00,,---,0.55,VWS V14.01,2014-01-06 00:06:00,
2014-01-05 19:11:00,30.7,12.9,0.00,WSW,244,0.0,3.1,47,0.00,,---,0.55,VWS V14.01,2014-01-06 00:11:00,
2014-01-05 19:17:00,30.7,12.9,0.00,WSW,249,0.0,3.6,47,0.00,,---,0.55,VWS V14.01,2014-01-06 00:17:00,
2014-01-05 19:22:00,30.7,12.9,0.00,WSW,251,3.1,3.1,47,0.00,,---,0.55,VWS V14.01,2014-01-06 00:22:00,
2014-01-05 19:28:00,30.9,12.6,0.00,West,265,2.2,2.7,46,0.00,,---,0.55,VWS V14.01,2014-01-06 00:28:00,
2014-01-05 19:58:00,31.5,12.6,0.00,West,265,0.0,2.7,45,0.00,,---,0.55,VWS V14.01,2014-01-06 00:58:00,
2014-01-05 20:03:00,31.6,12.8,0.00,West,265,0.0,0.0,45,0.00,,---,0.55,VWS V14.01,2014-01-06 01:03:00,
2014-01-05 20:09:00,31.8,13.4,0.00,West,265,0.0,0.0,46,0.00,,---,0.55,VWS V14.01,2014-01-06 01:09:00,
2014-01-05 20:14:00,31.8,13.4,0.00,WSW,243,0.0,0.0,46,0.00,,---,0.55,VWS V14.01,2014-01-06 01:14:00,
2014-01-05 20:20:00,31.8,13.4,0.00,WSW,243,0.0,0.0,46,0.00,,---,0.55,VWS V14.01,2014-01-06 01:20:00,
2014-01-05 20:25:00,32.0,13.6,0.00,WSW,243,0.0,0.0,46,0.00,,---,0.55,VWS V14.01,2014-01-06 01:25:00,
2014-01-05 20:31:00,32.0,14.1,0.00,WSW,243,0.0,0.0,47,0.00,,---,0.55,VWS V14.01,2014-01-06 01:31:00,
2014-01-05 21:06:00,32.4,15.8,0.00,SSW,206,0.0,2.7,50,0.00,,---,0.55,VWS V14.01,2014-01-06 02:06:00,
2014-01-05 21:12:00,32.4,15.8,0.00,SSW,206,0.0,0.0,50,0.00,,---,0.55,VWS V14.01,2014-01-06 02:12:00,
2014-01-05 21:17:00,32.4,15.8,0.00,SSW,206,0.0,0.0,50,0.00,,---,0.55,VWS V14.01,2014-01-06 02:17:00,
2014-01-05 21:23:00,32.4,15.4,0.00,SSW,206,0.0,0.0,49,0.00,,---,0.55,VWS V14.01,2014-01-06 02:23:00,
2014-01-05 21:28:00,32.4,15.4,0.00,SSW,206,0.0,0.0,49,0.00,,---,0.55,VWS V14.01,2014-01-06 02:28:00,
2014-01-05 21:58:00,32.5,15.0,0.00,WSW,258,0.0,2.7,48,0.00,,---,0.55,VWS V14.01,2014-01-06 02:58:00,
2014-01-05 22:03:00,32.5,14.6,0.00,WSW,258,0.0,0.0,47,0.00,,---,0.55,VWS V14.01,2014-01-06 03:03:00,
2014-01-05 22:09:00,32.5,14.6,0.00,WSW,258,0.0,0.0,47,0.00,,---,0.55,VWS V14.01,2014-01-06 03:09:00,
2014-01-05 22:15:00,32.5,14.6,0.00,WSW,258,0.0,0.0,47,0.00,,---,0.55,VWS V14.01,2014-01-06 03:15:00,
2014-01-05 22:20:00,32.5,14.6,0.00,WSW,258,0.0,0.0,47,0.00,,---,0.55,VWS V14.01,2014-01-06 03:20:00,
2014-01-05 22:26:00,32.5,14.6,0.00,WSW,258,0.0,0.0,47,0.00,,---,0.55,VWS V14.01,2014-01-06 03:26:00,
2014-01-05 22:32:00,32.5,14.6,0.00,WSW,258,0.0,0.0,47,0.00,,---,0.55,VWS V14.01,2014-01-06 03:32:00,
2014-01-05 23:06:00,32.7,15.2,0.00,WSW,258,0.0,0.0,48,0.00,,---,0.55,VWS V14.01,2014-01-06 04:06:00,
2014-01-05 23:12:00,32.9,15.9,0.00,WSW,258,0.0,0.0,49,0.00,,---,0.55,VWS V14.01,2014-01-06 04:12:00,
2014-01-05 23:17:00,33.1,16.5,0.00,WSW,258,0.0,0.0,50,0.00,,---,0.55,VWS V14.01,2014-01-06 04:17:00,
2014-01-05 23:22:00,33.3,16.6,0.00,WSW,258,0.0,0.0,50,0.00,,---,0.55,VWS V14.01,2014-01-06 04:22:00,
2014-01-05 23:28:00,33.8,17.1,0.00,WSW,258,0.0,0.0,50,0.00,,---,0.55,VWS V14.01,2014-01-06 04:28:00,
2014-01-05 23:57:00,34.5,17.8,0.00,WSW,247,0.0,0.0,50,0.04,,---,0.59,VWS V14.01,2014-01-06 04:57:00,